Time;durP1;ratioP1;P1;durP2;ratioP2;P2;SDS_P1;SDS_P2;PMS_P1;PMS_P2;Temp;Humidity;BMP_temperature;BMP_pressure;BME280_temperature;BME280_humidity;BME280_pressure;Samples;Min_cycle;Max_cycle;Signal;HPM_P1;HPM_P2
2023/03/02 00:01:53;;;;;;;2.55;1.40;;;;;;;-3.06;75.75;98565.78;7347644;19;20033;-72
2023/03/02 00:04:36;;;;;;;5.63;2.70;;;;;;;-3.04;75.74;98562.22;7346446;19;20006;-72
2023/03/02 00:07:06;;;;;;;6.00;1.55;;;;;;;-3.05;75.67;98567.50;7345488;19;20070;-72
2023/03/02 00:09:31;;;;;;;8.40;1.80;;;;;;;-3.00;75.95;98562.97;7346943;19;20015;-74
2023/03/02 00:11:56;;;;;;;4.35;1.85;;;;;;;-2.96;75.85;98569.78;7345123;19;20025;-72
2023/03/02 00:14:20;;;;;;;2.45;1.65;;;;;;;-3.01;75.82;98571.69;7343734;19;20115;-72
2023/03/02 00:16:45;;;;;;;2.90;1.33;;;;;;;-3.09;75.76;98582.38;7344913;19;20007;-72
2023/03/02 00:19:10;;;;;;;2.22;1.50;;;;;;;-3.09;75.72;98571.97;7345468;19;20085;-69
2023/03/02 00:21:34;;;;;;;2.85;1.40;;;;;;;-3.21;76.16;98571.50;7344878;19;20066;-72
2023/03/02 00:23:59;;;;;;;4.82;2.13;;;;;;;-3.18;76.25;98566.22;7347825;19;20040;-72
2023/03/02 00:26:24;;;;;;;5.88;1.92;;;;;;;-3.14;76.10;98554.75;7346598;19;20090;-71
2023/03/02 00:28:49;;;;;;;6.32;1.83;;;;;;;-3.16;76.21;98567.84;7346391;19;20006;-72
2023/03/02 00:31:14;;;;;;;2.75;1.38;;;;;;;-3.16;76.06;98573.03;7342127;19;20011;-73
2023/03/02 00:33:38;;;;;;;5.28;2.25;;;;;;;-3.26;76.26;98579.47;7339766;19;20006;-71
2023/03/02 00:36:03;;;;;;;2.75;1.67;;;;;;;-3.28;76.24;98586.50;7340863;19;20029;-73
2023/03/02 00:38:28;;;;;;;2.72;1.75;;;;;;;-3.27;76.28;98595.19;7339278;19;20014;-71
2023/03/02 00:40:54;;;;;;;4.38;1.90;;;;;;;-3.30;76.59;98599.59;7342180;19;20014;-71
2023/03/02 00:43:21;;;;;;;4.10;2.05;;;;;;;-3.24;76.37;98588.09;7343866;19;20050;-73
2023/03/02 00:45:46;;;;;;;6.72;3.42;;;;;;;-3.24;76.47;98605.50;7344338;19;20010;-68
2023/03/02 00:48:10;;;;;;;1.95;1.60;;;;;;;-3.33;76.61;98623.13;7344483;19;20018;-70
2023/03/02 00:50:39;;;;;;;2.40;1.55;;;;;;;-3.25;76.51;98624.63;7343313;19;20019;-72
2023/03/02 00:53:04;;;;;;;2.78;1.35;;;;;;;-3.19;76.60;98635.72;7343090;19;20118;-73
2023/03/02 00:55:29;;;;;;;3.47;2.00;;;;;;;-3.17;76.48;98641.75;7343059;19;20014;-72
2023/03/02 00:57:54;;;;;;;5.75;2.00;;;;;;;-3.32;76.23;98627.44;7343979;19;20058;-71
2023/03/02 01:00:26;;;;;;;3.88;2.08;;;;;;;-3.30;76.32;98620.44;7343215;19;20003;-71
2023/03/02 01:02:52;;;;;;;3.88;1.90;;;;;;;-3.32;76.03;98621.38;7345429;19;20006;-72
2023/03/02 01:05:17;;;;;;;6.38;2.35;;;;;;;-3.34;75.78;98613.63;7344456;19;20031;-70
2023/03/02 01:07:42;;;;;;;3.63;1.85;;;;;;;-3.34;75.62;98628.41;7344457;19;20010;-71
2023/03/02 01:10:07;;;;;;;3.80;1.98;;;;;;;-3.35;75.54;98624.94;7342901;19;20132;-69
2023/03/02 01:12:32;;;;;;;3.97;2.28;;;;;;;-3.45;75.29;98623.53;7344610;19;20145;-71
2023/03/02 01:14:57;;;;;;;2.80;2.25;;;;;;;-3.62;75.39;98620.59;7344841;19;20037;-72
2023/03/02 01:17:22;;;;;;;3.85;1.80;;;;;;;-3.60;75.63;98625.75;7343483;19;20019;-70
2023/03/02 01:19:47;;;;;;;3.05;2.13;;;;;;;-3.62;75.54;98631.03;7344179;19;20465;-72
2023/03/02 01:22:11;;;;;;;2.15;1.95;;;;;;;-3.72;75.84;98633.03;7344301;19;20025;-71
2023/03/02 01:24:36;;;;;;;5.93;2.75;;;;;;;-3.72;75.74;98634.78;7345186;19;20069;-75
2023/03/02 01:27:01;;;;;;;4.18;2.65;;;;;;;-3.76;75.77;98644.47;7340661;19;20022;-71
2023/03/02 01:29:26;;;;;;;5.45;2.08;;;;;;;-3.74;76.04;98649.63;7342436;19;20020;-71
2023/03/02 01:31:51;;;;;;;3.88;2.20;;;;;;;-3.71;76.12;98636.50;7344515;19;20003;-69
2023/03/02 01:34:15;;;;;;;5.35;2.33;;;;;;;-3.73;75.99;98633.09;7339131;19;20022;-68
2023/03/02 01:36:44;;;;;;;2.65;1.88;;;;;;;-3.65;75.98;98641.53;7340135;19;20035;-68
2023/03/02 01:39:09;;;;;;;2.90;2.05;;;;;;;-3.70;75.92;98627.78;7339688;19;20022;-67
2023/03/02 01:41:33;;;;;;;5.70;2.00;;;;;;;-3.74;75.79;98620.97;7341817;19;20095;-69
2023/03/02 01:43:58;;;;;;;4.28;1.98;;;;;;;-3.82;75.83;98617.72;7341727;19;20007;-68
2023/03/02 01:46:30;;;;;;;5.85;2.65;;;;;;;-3.94;76.07;98605.09;7340570;19;20019;-69
2023/03/02 01:49:10;;;;;;;4.25;1.42;;;;;;;-3.82;76.27;98602.09;7341776;19;20029;-68
2023/03/02 01:51:47;;;;;;;2.53;1.65;;;;;;;-3.73;75.81;98627.91;7342691;19;20017;-70
2023/03/02 01:54:16;;;;;;;2.90;1.65;;;;;;;-3.69;75.97;98630.34;7338593;19;20681;-69
2023/03/02 01:56:44;;;;;;;2.53;2.33;;;;;;;-3.72;75.67;98637.38;7339908;19;20023;-69
2023/03/02 01:59:13;;;;;;;7.85;2.33;;;;;;;-3.70;75.36;98643.41;7340660;19;20033;-70
2023/03/02 02:01:42;;;;;;;2.53;1.35;;;;;;;-3.68;75.39;98646.81;7341466;19;20018;-67
2023/03/02 02:04:06;;;;;;;3.58;1.88;;;;;;;-3.67;75.47;98648.53;7342264;19;20030;-68
2023/03/02 02:06:36;;;;;;;3.95;2.17;;;;;;;-3.71;75.37;98666.00;7343975;19;20010;-68
2023/03/02 02:09:04;;;;;;;4.47;2.40;;;;;;;-3.75;75.18;98650.53;7342097;19;20358;-68
2023/03/02 02:11:29;;;;;;;6.28;2.10;;;;;;;-3.87;74.91;98643.06;7343653;19;20038;-70
2023/03/02 02:13:59;;;;;;;3.15;1.73;;;;;;;-3.83;75.03;98645.53;7340655;19;20014;-72
2023/03/02 02:16:26;;;;;;;2.70;1.58;;;;;;;-3.77;75.07;98653.16;7347217;19;20028;-73
2023/03/02 02:18:51;;;;;;;4.50;2.05;;;;;;;-3.74;74.97;98658.28;7345810;19;20010;-71
2023/03/02 02:21:18;;;;;;;3.53;2.08;;;;;;;-3.72;74.84;98660.81;7345884;19;20014;-72
2023/03/02 02:24:01;;;;;;;3.83;1.55;;;;;;;-3.73;74.51;98662.59;7347826;19;20009;-73
2023/03/02 02:26:30;;;;;;;0.73;0.73;;;;;;;-3.68;74.69;98678.06;7346925;19;20017;-70
2023/03/02 02:29:01;;;;;;;6.30;1.63;;;;;;;-3.65;74.30;98649.34;7341889;19;20469;-71
2023/03/02 02:31:34;;;;;;;3.30;1.40;;;;;;;-3.59;74.45;98654.34;7343979;19;20013;-70
2023/03/02 02:34:09;;;;;;;4.22;1.35;;;;;;;-3.64;73.76;98645.84;7343541;19;20014;-73
2023/03/02 02:36:40;;;;;;;2.60;2.35;;;;;;;-3.72;73.32;98658.22;7351575;19;20077;-75
2023/03/02 02:39:16;;;;;;;5.00;1.63;;;;;;;-3.76;73.29;98649.66;7356240;19;20045;-74
2023/03/02 02:41:44;;;;;;;1.38;1.23;;;;;;;-3.71;73.31;98666.00;7351654;19;20011;-72
2023/03/02 02:44:14;;;;;;;2.83;1.98;;;;;;;-3.72;73.04;98666.03;7344552;19;20018;-71
2023/03/02 02:46:39;;;;;;;3.67;1.65;;;;;;;-3.68;73.15;98667.66;7349365;19;20014;-76
2023/03/02 02:49:05;;;;;;;3.55;1.40;;;;;;;-3.67;72.95;98671.97;7350375;19;20018;-74
2023/03/02 02:51:31;;;;;;;2.25;1.77;;;;;;;-3.73;72.70;98670.41;7348040;19;20025;-74
2023/03/02 02:54:01;;;;;;;3.47;1.27;;;;;;;-3.71;72.69;98688.56;7346917;19;20496;-73
2023/03/02 02:56:34;;;;;;;3.67;1.95;;;;;;;-3.79;72.42;98680.16;7349650;19;20003;-78
2023/03/02 02:59:04;;;;;;;5.00;2.90;;;;;;;-3.85;72.45;98686.41;7353717;19;20359;-79
2023/03/02 03:01:29;;;;;;;3.28;1.75;;;;;;;-3.84;72.57;98693.31;7353046;19;20014;-76
2023/03/02 03:04:01;;;;;;;4.80;2.47;;;;;;;-3.76;72.85;98682.66;7349609;19;20026;-77
2023/03/02 03:06:41;;;;;;;4.85;2.10;;;;;;;-3.85;72.77;98693.34;7349629;19;20018;-74
2023/03/02 03:09:08;;;;;;;5.07;2.22;;;;;;;-3.84;73.12;98703.72;7348505;19;20034;-75
2023/03/02 03:11:43;;;;;;;4.70;1.92;;;;;;;-3.84;73.00;98702.88;7349289;19;20090;-74
2023/03/02 03:14:14;;;;;;;4.47;1.85;;;;;;;-3.77;73.45;98701.78;7346171;19;20019;-74
2023/03/02 03:16:42;;;;;;;5.25;1.95;;;;;;;-3.87;73.37;98689.94;7349230;19;20461;-75
2023/03/02 03:19:19;;;;;;;2.50;1.85;;;;;;;-3.90;73.61;98697.81;7347494;19;20022;-73
2023/03/02 03:21:44;;;;;;;3.90;2.10;;;;;;;-3.97;74.07;98704.97;7349789;19;20086;-76
2023/03/02 03:24:10;;;;;;;2.90;1.60;;;;;;;-4.08;74.58;98710.47;7348201;19;20023;-75
2023/03/02 03:26:35;;;;;;;2.72;1.95;;;;;;;-4.22;75.20;98691.78;7352556;19;20013;-81
2023/03/02 03:29:01;;;;;;;2.75;2.40;;;;;;;-4.24;76.18;98688.34;7351016;19;20082;-79
2023/03/02 03:31:27;;;;;;;1.92;1.70;;;;;;;-4.16;76.27;98691.59;7354794;19;20010;-81
2023/03/02 03:33:53;;;;;;;5.88;2.30;;;;;;;-4.24;76.51;98693.56;7349932;19;20010;-80
2023/03/02 03:36:19;;;;;;;2.33;1.70;;;;;;;-4.30;76.32;98695.50;7354354;19;20018;-80
2023/03/02 03:38:44;;;;;;;3.42;1.55;;;;;;;-4.28;76.46;98686.72;7351942;19;20504;-80
2023/03/02 03:41:09;;;;;;;4.50;2.42;;;;;;;-4.26;76.94;98692.75;7353373;19;20446;-80
2023/03/02 03:43:34;;;;;;;3.35;1.67;;;;;;;-4.26;76.94;98679.72;7352631;19;20007;-81
2023/03/02 03:45:59;;;;;;;2.35;1.92;;;;;;;-4.23;76.88;98684.88;7354825;19;20013;-81
2023/03/02 03:48:23;;;;;;;3.40;1.60;;;;;;;-4.35;76.67;98684.34;7353494;19;20023;-79
2023/03/02 03:50:50;;;;;;;4.47;1.88;;;;;;;-4.40;76.60;98676.66;7354403;19;20010;-81
2023/03/02 03:53:15;;;;;;;6.57;2.55;;;;;;;-4.49;76.83;98677.75;7353143;19;20011;-81
2023/03/02 03:55:39;;;;;;;4.45;3.30;;;;;;;-4.42;76.63;98668.06;7362220;19;20070;-81
2023/03/02 03:58:04;;;;;;;3.63;2.40;;;;;;;-4.50;76.76;98670.84;7354273;19;20048;-76
2023/03/02 04:00:28;;;;;;;2.85;2.00;;;;;;;-4.45;76.72;98678.53;7349373;19;20017;-75
2023/03/02 04:03:00;;;;;;;2.80;1.90;;;;;;;-4.44;76.84;98680.25;7348506;19;20010;-74
2023/03/02 04:05:27;;;;;;;4.05;2.05;;;;;;;-4.36;76.68;98682.63;7345070;19;20010;-76
2023/03/02 04:07:52;;;;;;;3.42;2.00;;;;;;;-4.37;76.37;98700.00;7347299;19;20021;-77
2023/03/02 04:10:17;;;;;;;5.40;2.35;;;;;;;-4.45;76.32;98704.56;7346341;19;20568;-75
2023/03/02 04:12:43;;;;;;;2.83;2.25;;;;;;;-4.51;76.61;98689.09;7347576;19;20350;-78
2023/03/02 04:15:13;;;;;;;2.88;1.92;;;;;;;-4.41;76.37;98690.59;7346547;19;20023;-76
2023/03/02 04:17:38;;;;;;;4.18;2.38;;;;;;;-4.36;76.22;98691.28;7348129;19;20011;-76
2023/03/02 04:20:06;;;;;;;6.28;3.08;;;;;;;-4.40;76.26;98697.47;7347748;19;20014;-77
2023/03/02 04:22:31;;;;;;;3.35;1.85;;;;;;;-4.38;76.12;98688.72;7347937;19;20010;-76
2023/03/02 04:24:56;;;;;;;6.45;2.88;;;;;;;-4.41;75.93;98699.25;7346943;19;20039;-76
2023/03/02 04:27:21;;;;;;;2.90;1.73;;;;;;;-4.36;75.97;98691.28;7349709;19;20041;-81
2023/03/02 04:29:46;;;;;;;2.40;1.95;;;;;;;-4.33;76.09;98691.22;7349196;19;20017;-80
2023/03/02 04:32:13;;;;;;;2.67;1.83;;;;;;;-4.30;75.79;98698.09;7350481;19;20371;-81
2023/03/02 04:34:40;;;;;;;4.65;1.88;;;;;;;-4.32;75.87;98697.28;7347091;19;20031;-81
2023/03/02 04:37:05;;;;;;;5.53;2.40;;;;;;;-4.24;75.75;98703.97;7358261;19;20027;-80
2023/03/02 04:39:30;;;;;;;3.70;1.50;;;;;;;-4.20;75.73;98716.00;7349119;19;20006;-81
2023/03/02 04:41:55;;;;;;;4.20;2.92;;;;;;;-4.31;75.60;98720.66;7354252;19;20017;-81
2023/03/02 04:44:20;;;;;;;4.45;2.28;;;;;;;-4.28;75.71;98728.34;7350932;19;20341;-82
2023/03/02 04:46:46;;;;;;;3.72;1.88;;;;;;;-4.23;75.80;98734.31;7346422;19;20438;-79
2023/03/02 04:49:11;;;;;;;2.42;1.80;;;;;;;-4.14;75.75;98739.25;7349939;19;20007;-79
2023/03/02 04:51:39;;;;;;;4.03;2.25;;;;;;;-4.10;75.30;98738.28;7350651;19;20038;-79
2023/03/02 04:54:07;;;;;;;3.80;2.75;;;;;;;-4.07;75.41;98738.22;7346093;19;20337;-78
2023/03/02 04:56:32;;;;;;;3.33;2.63;;;;;;;-4.08;75.17;98749.53;7349172;19;20023;-77
2023/03/02 04:58:57;;;;;;;5.45;3.10;;;;;;;-4.08;75.15;98746.91;7346367;19;20349;-78
2023/03/02 05:01:23;;;;;;;10.07;5.05;;;;;;;-4.22;75.14;98756.84;7349308;19;20678;-80
2023/03/02 05:03:48;;;;;;;9.93;4.60;;;;;;;-4.18;75.30;98765.41;7347612;19;20315;-80
2023/03/02 05:06:13;;;;;;;6.22;3.58;;;;;;;-4.09;75.19;98765.16;7350413;19;20011;-79
2023/03/02 05:08:38;;;;;;;5.82;3.42;;;;;;;-4.05;75.27;98771.97;7348266;19;20078;-80
2023/03/02 05:11:05;;;;;;;5.95;4.63;;;;;;;-4.11;75.27;98778.22;7350350;19;20461;-81
2023/03/02 05:13:29;;;;;;;11.60;4.15;;;;;;;-4.12;75.49;98776.50;7351758;19;20069;-81
2023/03/02 05:15:56;;;;;;;9.48;4.13;;;;;;;-4.07;75.47;98779.84;7351143;19;20028;-80
2023/03/02 05:18:20;;;;;;;13.32;6.45;;;;;;;-4.07;75.41;98781.59;7362277;19;20078;-80
2023/03/02 05:20:45;;;;;;;7.82;5.03;;;;;;;-4.14;75.64;98775.69;7358584;19;20010;-81
2023/03/02 05:23:22;;;;;;;5.35;2.67;;;;;;;-4.12;75.97;98784.31;7351635;19;20071;-80
2023/03/02 05:25:46;;;;;;;5.85;3.55;;;;;;;-4.05;76.21;98785.84;7350824;19;20054;-81
2023/03/02 05:28:11;;;;;;;4.90;2.72;;;;;;;-3.98;76.27;98783.09;7345526;19;20007;-83
2023/03/02 05:30:36;;;;;;;5.80;3.42;;;;;;;-3.99;76.42;98781.38;7348489;19;20010;-80
2023/03/02 05:33:01;;;;;;;8.48;3.30;;;;;;;-4.08;76.57;98785.97;7349483;19;20007;-81
2023/03/02 05:35:26;;;;;;;6.10;2.95;;;;;;;-4.07;76.75;98786.81;7343844;19;20107;-74
2023/03/02 05:37:51;;;;;;;7.03;3.63;;;;;;;-4.00;77.01;98792.69;7343259;19;20026;-74
2023/03/02 05:40:19;;;;;;;4.82;3.40;;;;;;;-3.84;76.85;98801.81;7342693;19;20477;-75
2023/03/02 05:42:44;;;;;;;7.55;3.13;;;;;;;-3.81;76.85;98796.50;7340858;19;20018;-74
2023/03/02 05:45:18;;;;;;;4.32;2.72;;;;;;;-3.74;76.50;98790.25;7343757;19;20007;-73
2023/03/02 05:47:43;;;;;;;7.95;4.07;;;;;;;-3.62;76.26;98789.91;7342729;19;20015;-73
2023/03/02 05:50:08;;;;;;;5.10;3.45;;;;;;;-3.51;76.20;98790.47;7342392;19;20476;-74
2023/03/02 05:52:32;;;;;;;8.07;3.88;;;;;;;-3.60;75.56;98789.84;7341015;19;20299;-73
2023/03/02 05:54:57;;;;;;;4.38;2.83;;;;;;;-3.48;75.67;98795.56;7341472;19;20362;-76
2023/03/02 05:57:22;;;;;;;6.82;3.67;;;;;;;-3.58;75.17;98801.94;7340647;19;20453;-74
2023/03/02 05:59:46;;;;;;;4.75;3.25;;;;;;;-3.41;75.18;98801.47;7343887;19;20002;-74
2023/03/02 06:02:12;;;;;;;9.32;5.07;;;;;;;-3.36;74.95;98800.41;7340873;19;20022;-76
2023/03/02 06:04:42;;;;;;;5.18;3.15;;;;;;;-3.34;74.59;98801.22;7345250;19;19999;-78
2023/03/02 06:07:06;;;;;;;4.30;2.83;;;;;;;-3.20;74.54;98811.25;7345851;19;20010;-78
2023/03/02 06:09:31;;;;;;;7.30;3.80;;;;;;;-3.17;74.03;98805.13;7346634;19;20010;-79
2023/03/02 06:11:55;;;;;;;4.57;3.45;;;;;;;-3.18;73.48;98813.81;7345591;19;20488;-79
2023/03/02 06:14:20;;;;;;;5.03;3.10;;;;;;;-3.16;73.20;98822.47;7344404;19;20020;-79
2023/03/02 06:16:47;;;;;;;7.05;3.00;;;;;;;-3.13;73.31;98824.94;7349672;19;20424;-79
2023/03/02 06:19:12;;;;;;;4.03;2.50;;;;;;;-3.05;73.44;98828.22;7345974;19;20011;-78
2023/03/02 06:21:36;;;;;;;4.80;2.65;;;;;;;-3.07;72.52;98820.44;7351740;19;20022;-77
2023/03/02 06:24:01;;;;;;;6.53;2.97;;;;;;;-2.96;72.35;98818.34;7353134;19;20055;-79
2023/03/02 06:26:26;;;;;;;3.67;2.55;;;;;;;-3.00;71.99;98808.06;7359017;19;20474;-79
2023/03/02 06:28:50;;;;;;;4.20;2.60;;;;;;;-2.87;72.12;98804.19;7352904;19;20003;-76
2023/03/02 06:31:15;;;;;;;4.63;2.72;;;;;;;-2.74;72.35;98800.28;7354785;19;20330;-75
2023/03/02 06:33:40;;;;;;;4.60;3.10;;;;;;;-2.60;71.70;98805.06;7352082;19;20015;-75
2023/03/02 06:36:04;;;;;;;4.10;2.90;;;;;;;-2.51;70.46;98806.53;7351677;19;20090;-73
2023/03/02 06:38:29;;;;;;;3.78;2.72;;;;;;;-2.28;70.39;98796.19;7351039;19;20011;-72
2023/03/02 06:40:54;;;;;;;3.45;2.17;;;;;;;-1.98;69.84;98782.09;7353630;19;20006;-74
2023/03/02 06:43:18;;;;;;;9.38;2.88;;;;;;;-1.70;67.88;98787.19;7351435;19;20046;-73
2023/03/02 06:45:43;;;;;;;4.20;2.85;;;;;;;-1.41;66.86;98777.44;7350363;19;20038;-75
2023/03/02 06:48:07;;;;;;;10.02;2.63;;;;;;;-1.27;65.17;98777.78;7349397;19;20042;-75
2023/03/02 06:50:33;;;;;;;4.90;2.90;;;;;;;-1.00;64.95;98773.25;7350235;19;20011;-75
2023/03/02 06:52:57;;;;;;;5.88;2.90;;;;;;;-0.85;63.29;98762.19;7347713;19;20026;-75
2023/03/02 06:55:22;;;;;;;3.03;2.28;;;;;;;-0.61;62.98;98762.97;7349527;19;20083;-75
2023/03/02 06:57:47;;;;;;;6.65;2.55;;;;;;;-0.47;62.96;98756.28;7347241;19;20017;-73
2023/03/02 07:00:15;;;;;;;5.13;2.40;;;;;;;-0.51;61.52;98746.81;7350908;19;20042;-74
2023/03/02 07:02:40;;;;;;;4.03;2.90;;;;;;;-0.22;61.96;98736.88;7348991;19;20477;-75
2023/03/02 07:05:06;;;;;;;6.55;2.45;;;;;;;0.14;60.85;98745.78;7349313;19;20362;-74
2023/03/02 07:07:30;;;;;;;3.80;2.42;;;;;;;0.09;57.97;98753.03;7350170;19;20014;-73
2023/03/02 07:09:55;;;;;;;5.68;2.33;;;;;;;0.17;57.92;98750.06;7350995;19;20014;-76
2023/03/02 07:12:20;;;;;;;4.60;2.28;;;;;;;0.16;57.50;98745.72;7349129;19;20086;-75
2023/03/02 07:14:44;;;;;;;4.63;2.20;;;;;;;0.19;57.32;98746.47;7351677;19;20475;-73
2023/03/02 07:17:09;;;;;;;3.92;1.92;;;;;;;0.47;57.00;98753.94;7352692;19;20014;-75
2023/03/02 07:19:33;;;;;;;2.60;2.15;;;;;;;0.82;56.09;98754.94;7363650;19;20003;-74
2023/03/02 07:21:58;;;;;;;7.53;2.47;;;;;;;1.06;54.53;98751.19;7352026;19;20014;-75
2023/03/02 07:24:23;;;;;;;3.28;2.53;;;;;;;1.29;54.12;98744.00;7350238;19;20017;-74
2023/03/02 07:26:48;;;;;;;6.78;3.45;;;;;;;1.53;53.64;98745.41;7350011;19;20010;-75
2023/03/02 07:29:12;;;;;;;2.55;1.63;;;;;;;1.48;52.99;98747.41;7351610;19;19998;-74
2023/03/02 07:31:37;;;;;;;3.75;2.88;;;;;;;1.10;52.43;98744.03;7348592;19;20350;-75
2023/03/02 07:34:02;;;;;;;3.72;2.88;;;;;;;0.96;53.27;98744.66;7346577;19;20002;-75
2023/03/02 07:36:26;;;;;;;2.80;2.47;;;;;;;0.48;53.50;98744.28;7346542;19;20015;-73
2023/03/02 07:38:51;;;;;;;3.30;2.35;;;;;;;0.46;54.65;98746.13;7347232;19;20762;-73
2023/03/02 07:41:16;;;;;;;3.58;2.30;;;;;;;0.32;54.42;98747.63;7346255;19;20017;-73
2023/03/02 07:43:40;;;;;;;2.90;2.50;;;;;;;0.05;54.91;98748.81;7349878;19;20026;-73
2023/03/02 07:46:05;;;;;;;2.08;1.80;;;;;;;-0.01;55.71;98746.47;7346773;19;20400;-73
2023/03/02 07:48:31;;;;;;;3.13;1.90;;;;;;;-0.09;55.71;98766.88;7350439;19;20018;-73
2023/03/02 07:51:00;;;;;;;3.30;1.88;;;;;;;-0.05;56.41;98752.75;7348643;19;20026;-73
2023/03/02 07:53:26;;;;;;;5.45;1.92;;;;;;;0.19;56.25;98770.03;7347412;19;20011;-74
2023/03/02 07:55:51;;;;;;;8.00;3.10;;;;;;;0.64;55.16;98751.41;7347508;19;20035;-74
2023/03/02 07:58:15;;;;;;;4.30;2.80;;;;;;;0.59;52.36;98766.50;7345737;19;20015;-73
2023/03/02 08:00:40;;;;;;;3.33;2.42;;;;;;;0.51;52.52;98759.91;7346579;19;20054;-74
2023/03/02 08:03:04;;;;;;;4.35;2.13;;;;;;;0.39;53.26;98753.44;7346174;19;20083;-77
2023/03/02 08:05:29;;;;;;;5.03;2.15;;;;;;;0.28;54.05;98753.91;7348667;19;20049;-74
2023/03/02 08:07:54;;;;;;;3.00;2.20;;;;;;;0.44;53.90;98748.00;7347428;19;20010;-76
2023/03/02 08:10:19;;;;;;;7.15;2.35;;;;;;;0.65;54.46;98750.50;7346907;19;20066;-75
2023/03/02 08:12:44;;;;;;;2.65;1.75;;;;;;;0.86;52.89;98746.03;7346249;19;20511;-75
2023/03/02 08:15:09;;;;;;;4.53;1.70;;;;;;;1.00;51.89;98743.63;7344845;19;20070;-74
2023/03/02 08:17:34;;;;;;;4.45;2.17;;;;;;;1.00;53.31;98748.88;7349323;19;20014;-74
2023/03/02 08:19:59;;;;;;;3.00;2.22;;;;;;;0.66;50.93;98733.84;7345420;19;20007;-76
2023/03/02 08:22:23;;;;;;;5.38;1.48;;;;;;;0.52;51.18;98730.13;7347968;19;20010;-75
2023/03/02 08:24:48;;;;;;;3.80;1.65;;;;;;;0.48;51.31;98712.84;7347976;19;20074;-74
2023/03/02 08:27:14;;;;;;;3.15;1.30;;;;;;;0.39;50.98;98724.59;7346169;19;20454;-74
2023/03/02 08:29:39;;;;;;;5.25;2.13;;;;;;;0.41;52.27;98714.03;7349391;19;20010;-74
2023/03/02 08:32:04;;;;;;;3.25;1.73;;;;;;;0.42;51.10;98723.63;7345577;19;20035;-74
2023/03/02 08:34:29;;;;;;;4.18;1.77;;;;;;;0.94;52.22;98719.41;7347961;19;20021;-75
2023/03/02 08:36:53;;;;;;;2.13;1.60;;;;;;;1.12;49.79;98718.56;7346362;19;20066;-74
2023/03/02 08:39:21;;;;;;;2.85;2.15;;;;;;;1.21;50.49;98727.75;7346859;19;20027;-75
2023/03/02 08:41:45;;;;;;;5.88;2.25;;;;;;;1.13;50.36;98724.66;7346544;19;20389;-76
2023/03/02 08:44:10;;;;;;;4.47;2.53;;;;;;;0.63;48.67;98712.13;7344341;19;20370;-76
2023/03/02 08:46:35;;;;;;;2.45;2.03;;;;;;;0.54;50.07;98717.81;7346029;19;20114;-74
2023/03/02 08:48:59;;;;;;;2.65;1.58;;;;;;;0.72;50.96;98712.56;7345243;19;20010;-74
2023/03/02 08:51:25;;;;;;;2.75;1.48;;;;;;;1.08;51.28;98711.75;7343733;19;20013;-74
2023/03/02 08:53:53;;;;;;;3.20;1.77;;;;;;;1.36;51.19;98713.88;7344857;19;20023;-72
2023/03/02 08:56:24;;;;;;;4.32;2.30;;;;;;;1.44;50.37;98714.38;7345003;19;20037;-73
2023/03/02 08:58:50;;;;;;;8.63;2.15;;;;;;;1.34;50.86;98719.22;7345373;19;20026;-74
2023/03/02 09:01:18;;;;;;;1.95;1.55;;;;;;;1.16;50.75;98716.63;7344237;19;20089;-73
2023/03/02 09:03:43;;;;;;;3.53;2.00;;;;;;;1.02;51.75;98723.38;7345446;19;20022;-74
2023/03/02 09:06:08;;;;;;;3.65;1.90;;;;;;;0.53;50.17;98723.97;7344041;19;20010;-75
2023/03/02 09:08:32;;;;;;;3.95;2.25;;;;;;;0.90;51.43;98710.00;7345814;19;20014;-72
2023/03/02 09:10:57;;;;;;;2.95;1.70;;;;;;;1.70;48.84;98713.91;7342376;19;20070;-73
2023/03/02 09:13:21;;;;;;;2.47;1.63;;;;;;;1.94;47.83;98709.16;7344193;19;20354;-73
2023/03/02 09:15:46;;;;;;;2.53;1.98;;;;;;;1.77;47.85;98703.94;7345633;19;20405;-75
2023/03/02 09:18:10;;;;;;;2.33;1.45;;;;;;;1.73;49.07;98708.50;7346317;19;20014;-75
2023/03/02 09:20:35;;;;;;;2.03;1.65;;;;;;;1.38;48.47;98712.03;7343510;19;20226;-76
2023/03/02 09:23:00;;;;;;;2.83;1.85;;;;;;;1.37;49.29;98705.06;7345815;19;20051;-77
2023/03/02 09:25:24;;;;;;;3.78;2.13;;;;;;;1.18;48.99;98720.88;7345421;19;20022;-77
2023/03/02 09:27:49;;;;;;;2.30;1.50;;;;;;;0.96;49.44;98721.06;7345165;19;20015;-76
2023/03/02 09:30:14;;;;;;;4.32;2.80;;;;;;;0.77;49.92;98709.72;7343165;19;20651;-77
2023/03/02 09:32:39;;;;;;;3.13;1.95;;;;;;;0.56;50.40;98715.97;7346454;19;20014;-77
2023/03/02 09:35:04;;;;;;;3.00;2.15;;;;;;;0.48;50.56;98704.97;7345110;19;20018;-78
2023/03/02 09:37:29;;;;;;;2.72;2.08;;;;;;;0.38;50.45;98703.69;7346514;19;20022;-78
2023/03/02 09:39:54;;;;;;;2.95;2.03;;;;;;;0.25;50.86;98714.72;7342955;19;20036;-80
2023/03/02 09:42:40;;;;;;;3.47;1.95;;;;;;;0.23;50.70;98698.19;7346966;19;20346;-78
2023/03/02 09:45:31;;;;;;;3.50;1.67;;;;;;;0.45;50.76;98694.63;7345356;19;20014;-77
2023/03/02 09:48:08;;;;;;;3.95;2.35;;;;;;;0.41;50.12;98677.34;7344100;19;20018;-79
2023/03/02 09:50:36;;;;;;;1.95;1.52;;;;;;;0.79;50.22;98686.06;7345168;19;20015;-73
2023/03/02 09:53:15;;;;;;;2.60;2.00;;;;;;;1.15;49.38;98691.28;7340939;19;20014;-73
2023/03/02 09:55:39;;;;;;;3.67;2.03;;;;;;;1.24;48.70;98662.81;7338381;19;20017;-72
2023/03/02 09:58:11;;;;;;;3.15;2.08;;;;;;;1.32;48.72;98683.47;7338457;19;20027;-72
2023/03/02 10:00:41;;;;;;;3.08;2.28;;;;;;;1.15;48.25;98672.91;7340818;19;20014;-74
2023/03/02 10:03:10;;;;;;;2.83;1.98;;;;;;;1.25;48.73;98680.25;7343046;19;20014;-74
2023/03/02 10:05:40;;;;;;;2.70;1.73;;;;;;;1.52;48.20;98664.91;7340495;19;20011;-74
2023/03/02 10:08:12;;;;;;;4.32;1.70;;;;;;;1.70;47.98;98666.59;7343092;19;20025;-73
2023/03/02 10:11:17;;;;;;;2.33;1.50;;;;;;;1.98;47.07;98660.78;7343033;19;20415;-74
2023/03/02 10:14:04;;;;;;;2.33;1.60;;;;;;;2.02;47.25;98645.72;7341506;19;20051;-74
2023/03/02 10:16:43;;;;;;;3.00;2.30;;;;;;;1.83;47.96;98644.03;7342460;19;20003;-72
2023/03/02 10:19:31;;;;;;;1.95;1.80;;;;;;;1.48;47.49;98639.72;7341930;19;20078;-73
2023/03/02 10:22:21;;;;;;;3.13;2.47;;;;;;;1.71;47.77;98638.56;7340625;19;20014;-72
2023/03/02 10:24:52;;;;;;;3.38;2.05;;;;;;;1.38;47.75;98634.09;7344292;19;20098;-73
2023/03/02 10:27:25;;;;;;;5.18;3.03;;;;;;;1.35;48.29;98634.28;7342846;19;20026;-71
2023/03/02 10:30:01;;;;;;;3.10;2.28;;;;;;;0.96;48.80;98626.59;7341352;19;20339;-72
2023/03/02 10:32:34;;;;;;;3.85;1.90;;;;;;;0.90;49.15;98626.91;7341804;19;20011;-72
2023/03/02 10:35:09;;;;;;;2.40;2.20;;;;;;;0.99;49.07;98629.06;7340818;19;20364;-73
2023/03/02 10:37:34;;;;;;;2.25;1.65;;;;;;;0.75;49.61;98606.66;7343336;19;20014;-73
2023/03/02 10:39:58;;;;;;;2.35;1.92;;;;;;;0.70;49.74;98608.63;7340621;19;20034;-72
2023/03/02 10:42:32;;;;;;;2.33;2.10;;;;;;;0.81;50.10;98601.09;7343694;19;20023;-72
2023/03/02 10:45:25;;;;;;;2.90;2.27;;;;;;;0.68;50.68;98615.72;7342410;19;20010;-72
2023/03/02 10:48:09;;;;;;;4.00;1.77;;;;;;;0.71;50.85;98612.94;7340220;19;20268;-72
2023/03/02 10:50:35;;;;;;;3.50;1.92;;;;;;;0.58;50.59;98609.22;7342829;19;20015;-70
2023/03/02 10:53:00;;;;;;;5.20;2.08;;;;;;;0.52;50.95;98599.88;7341749;19;20022;-74
2023/03/02 10:55:25;;;;;;;3.53;2.33;;;;;;;0.10;50.52;98602.75;7344189;19;20015;-74
2023/03/02 10:58:21;;;;;;;7.43;2.35;;;;;;;0.40;50.70;98608.31;7342234;19;20028;-75
2023/03/02 11:00:58;;;;;;;2.28;1.63;;;;;;;0.51;50.77;98595.56;7339312;19;20094;-73
2023/03/02 11:03:23;;;;;;;2.42;1.60;;;;;;;0.54;50.69;98598.03;7343337;19;20018;-73
2023/03/02 11:05:48;;;;;;;3.08;2.00;;;;;;;0.68;50.71;98584.25;7340990;19;20041;-73
2023/03/02 11:08:22;;;;;;;2.42;1.73;;;;;;;0.64;50.64;98577.47;7348722;19;20018;-71
2023/03/02 11:11:04;;;;;;;8.70;2.45;;;;;;;0.47;50.84;98578.25;7347591;19;20003;-75
2023/03/02 11:13:33;;;;;;;3.83;2.35;;;;;;;0.38;51.54;98577.84;7344734;19;20025;-74
2023/03/02 11:16:00;;;;;;;5.00;1.80;;;;;;;0.49;51.67;98580.81;7345581;19;20010;-70
2023/03/02 11:18:31;;;;;;;4.20;1.95;;;;;;;0.61;51.91;98574.97;7351277;19;20035;-77
2023/03/02 11:21:02;;;;;;;4.32;2.10;;;;;;;0.48;51.38;98584.34;7349044;19;20036;-75
2023/03/02 11:24:14;;;;;;;2.88;1.60;;;;;;;0.56;52.13;98561.25;7347162;19;20123;-79
2023/03/02 11:27:12;;;;;;;2.30;1.77;;;;;;;0.38;51.98;98551.63;7344838;19;20014;-73
2023/03/02 11:29:51;;;;;;;3.60;2.45;;;;;;;0.25;51.95;98543.50;7343023;19;20014;-73
2023/03/02 11:32:30;;;;;;;3.08;2.17;;;;;;;0.33;52.17;98542.25;7344601;19;20010;-74
2023/03/02 11:35:12;;;;;;;5.45;2.25;;;;;;;0.15;52.63;98532.59;7342413;19;20022;-72
2023/03/02 11:37:39;;;;;;;2.65;2.15;;;;;;;0.30;52.91;98528.41;7342593;19;20116;-73
2023/03/02 11:40:25;;;;;;;3.58;2.03;;;;;;;0.43;53.01;98511.19;7344428;19;20557;-75